Time;durP1;ratioP1;P1;durP2;ratioP2;P2;SDS_P1;SDS_P2;PMS_P1;PMS_P2;Temp;Humidity;BMP_temperature;BMP_pressure;BME280_temperature;BME280_humidity;BME280_pressure;Samples;Min_cycle;Max_cycle;Signal;HPM_P1;HPM_P2
2022/11/08 00:02:35;;;;;;;7.57;4.22;;;;;;;10.90;70.08;99842.59;1087210;54;20050;-78
2022/11/08 00:14:46;;;;;;;5.25;2.85;;;;;;;11.27;68.78;99830.88;1087108;54;20065;-80
2022/11/08 00:16:38;;;;;;;5.90;2.63;;;;;;;11.30;68.48;99832.41;1087287;54;20035;-79
2022/11/08 00:19:50;;;;;;;8.50;2.70;;;;;;;11.27;68.60;99828.22;1087052;54;20093;-80
2022/11/08 00:21:01;;;;;;;5.35;2.60;;;;;;;11.33;68.35;99832.97;1087292;54;20041;-79
2022/11/08 00:24:33;;;;;;;;;;;;;;;11.19;68.84;99828.97;1088026;47;20034;-79
2022/11/08 00:25:50;;;;;;;;;;;;;;;11.05;69.45;99824.19;1087406;54;19969;-81
2022/11/08 00:27:12;;;;;;;6.70;3.13;;;;;;;10.91;69.44;99825.56;1087891;47;19942;-80
2022/11/08 00:28:17;;;;;;;5.75;3.15;;;;;;;10.91;69.75;99829.06;1087369;54;20807;-79
2022/11/08 00:29:22;;;;;;;6.40;3.40;;;;;;;11.02;69.45;99825.34;1092311;39;20287;-80
2022/11/08 00:30:27;;;;;;;7.68;3.60;;;;;;;11.08;69.28;99827.38;1087357;54;20018;-80
2022/11/08 00:31:30;;;;;;;7.20;3.30;;;;;;;11.09;69.42;99833.59;1087347;54;20055;-80
2022/11/08 00:32:34;;;;;;;5.90;3.47;;;;;;;11.15;68.93;99826.75;1090445;39;20700;-80
2022/11/08 00:33:36;;;;;;;5.55;3.42;;;;;;;11.20;69.20;99824.47;1087667;54;20030;-81
2022/11/08 00:34:42;;;;;;;6.20;3.15;;;;;;;11.21;69.09;99812.78;1087698;54;20037;-79
2022/11/08 00:35:44;;;;;;;6.60;2.80;;;;;;;11.22;68.84;99817.16;1089031;47;20015;-78
2022/11/08 00:36:48;;;;;;;5.53;2.83;;;;;;;11.27;69.03;99822.88;1088002;54;20027;-79
2022/11/08 00:37:50;;;;;;;5.07;2.58;;;;;;;11.26;68.84;99812.31;1087993;54;20050;-80
2022/11/08 00:38:54;;;;;;;5.95;2.92;;;;;;;11.24;68.76;99818.66;1087940;54;20026;-80
2022/11/08 00:39:56;;;;;;;5.95;3.00;;;;;;;11.22;68.89;99819.81;1088109;54;20019;-79
2022/11/08 00:41:02;;;;;;;6.43;3.13;;;;;;;11.18;69.13;99827.31;1089228;46;20054;-81
2022/11/08 00:42:05;;;;;;;5.68;3.05;;;;;;;11.22;69.11;99819.81;1088564;46;20038;-80
2022/11/08 00:43:09;;;;;;;6.53;2.67;;;;;;;11.24;69.02;99813.31;1088751;46;20011;-80
2022/11/08 00:44:11;;;;;;;5.88;2.67;;;;;;;11.19;69.12;99814.78;1088461;54;20026;-80
2022/11/08 00:45:16;;;;;;;5.45;2.90;;;;;;;11.18;69.21;99815.75;1088411;54;20027;-81
2022/11/08 00:46:17;;;;;;;4.90;2.60;;;;;;;11.21;68.93;99810.94;1089192;46;20042;-79
2022/11/08 00:47:22;;;;;;;7.13;3.40;;;;;;;11.22;68.98;99809.13;1089448;46;20033;-78
2022/11/08 00:48:23;;;;;;;5.25;2.28;;;;;;;11.21;69.26;99810.13;1089563;46;20034;-81
2022/11/08 00:49:28;;;;;;;6.22;3.03;;;;;;;11.23;69.05;99816.16;1088396;54;20086;-80
2022/11/08 00:50:29;;;;;;;6.85;3.28;;;;;;;11.20;69.10;99811.09;1088469;54;20034;-80
2022/11/08 00:51:33;;;;;;;4.90;2.83;;;;;;;11.16;69.18;99804.38;1088760;46;20018;-79
2022/11/08 00:52:37;;;;;;;5.28;2.92;;;;;;;11.17;69.06;99809.59;1088397;54;20038;-80
2022/11/08 00:53:39;;;;;;;5.53;2.97;;;;;;;11.18;69.10;99810.41;1089181;46;20026;-79
2022/11/08 00:54:43;;;;;;;6.35;2.97;;;;;;;11.15;69.30;99808.03;1092349;46;20050;-80
2022/11/08 00:55:45;;;;;;;5.25;2.58;;;;;;;11.14;69.37;99806.38;1090089;46;20030;-79
2022/11/08 00:56:52;;;;;;;5.60;2.90;;;;;;;11.11;69.58;99806.69;1088048;54;20033;-80
2022/11/08 00:57:54;;;;;;;5.07;2.50;;;;;;;11.06;69.33;99799.94;1088891;46;20041;-80
2022/11/08 00:59:02;;;;;;;6.63;3.33;;;;;;;11.07;69.50;99803.47;1089139;46;20038;-80
2022/11/08 01:00:07;;;;;;;5.28;2.63;;;;;;;11.07;69.58;99801.63;1088014;54;20035;-80
2022/11/08 01:01:10;;;;;;;5.90;3.30;;;;;;;11.06;69.39;99805.28;1088029;54;20021;-80
2022/11/08 01:02:16;;;;;;;5.60;3.15;;;;;;;11.02;69.57;99801.25;1087984;54;20038;-80
2022/11/08 01:03:18;;;;;;;4.97;2.70;;;;;;;10.99;69.58;99804.25;1087960;54;20057;-80
2022/11/08 01:04:22;;;;;;;4.57;2.38;;;;;;;11.01;69.50;99807.59;1087996;54;20035;-80
2022/11/08 01:05:24;;;;;;;5.50;3.28;;;;;;;11.03;69.56;99805.63;1088033;54;20709;-79
2022/11/08 01:06:30;;;;;;;5.00;2.70;;;;;;;11.07;69.37;99796.28;1088006;54;20021;-79
2022/11/08 01:07:32;;;;;;;6.72;3.13;;;;;;;11.07;69.22;99800.81;1092066;46;20057;-80
2022/11/08 01:08:37;;;;;;;4.82;2.30;;;;;;;11.07;69.30;99804.31;1088705;46;20069;-80
2022/11/08 01:09:39;;;;;;;5.40;2.63;;;;;;;11.00;69.56;99791.72;1088063;54;20062;-79
2022/11/08 01:10:43;;;;;;;5.70;2.65;;;;;;;10.98;69.59;99791.84;1087994;54;20073;-79
2022/11/08 01:11:47;;;;;;;4.63;2.53;;;;;;;10.99;69.66;99793.53;1088046;54;20034;-79
2022/11/08 01:12:52;;;;;;;5.78;2.50;;;;;;;10.93;69.90;99789.63;1088381;39;20756;-80
2022/11/08 01:13:59;;;;;;;5.28;2.85;;;;;;;10.89;69.65;99784.75;1090306;46;20030;-80
2022/11/08 01:15:01;;;;;;;5.32;3.10;;;;;;;10.87;70.03;99784.06;1088726;46;20038;-80
2022/11/08 01:16:08;;;;;;;5.35;2.78;;;;;;;10.86;70.00;99785.09;1087888;54;20061;-80
2022/11/08 01:17:12;;;;;;;7.60;3.00;;;;;;;10.86;69.81;99777.06;1087963;54;20038;-81
2022/11/08 01:18:15;;;;;;;5.43;2.67;;;;;;;10.87;69.78;99786.72;1087892;54;20015;-81
2022/11/08 01:19:19;;;;;;;5.13;2.47;;;;;;;10.86;70.16;99787.75;1088005;54;20018;-80
2022/11/08 01:20:21;;;;;;;5.93;2.70;;;;;;;10.84;69.99;99790.56;1088233;46;21123;-80
2022/11/08 01:21:26;;;;;;;5.47;2.90;;;;;;;10.84;69.98;99789.72;1090525;46;20034;-80
2022/11/08 01:22:27;;;;;;;6.57;2.90;;;;;;;10.71;70.61;99785.59;1087963;54;20071;-80
2022/11/08 01:23:32;;;;;;;5.88;3.13;;;;;;;10.77;70.22;99778.81;1087898;54;20069;-80
2022/11/08 01:24:36;;;;;;;5.25;2.80;;;;;;;10.75;70.59;99789.66;1087999;54;20025;-79
2022/11/08 01:25:42;;;;;;;5.13;2.70;;;;;;;10.72;70.55;99784.59;1088007;54;20015;-81
2022/11/08 01:26:46;;;;;;;5.65;2.97;;;;;;;10.69;70.69;99787.56;1087952;54;20890;-80
2022/11/08 01:27:47;;;;;;;11.38;3.47;;;;;;;10.65;70.80;99780.88;1087961;54;20022;-80
2022/11/08 01:28:55;;;;;;;7.22;3.45;;;;;;;10.65;71.30;99782.69;1087902;54;20041;-80
2022/11/08 01:29:56;;;;;;;5.57;2.80;;;;;;;10.65;71.04;99785.34;1091310;46;20026;-79
2022/11/08 01:31:05;;;;;;;5.05;2.90;;;;;;;10.60;71.31;99778.66;1087992;54;20018;-80
2022/11/08 01:32:10;;;;;;;5.03;2.85;;;;;;;10.61;71.29;99783.00;1087974;54;20030;-80
2022/11/08 01:33:11;;;;;;;5.38;2.80;;;;;;;10.60;71.18;99775.97;1087954;54;20035;-80
2022/11/08 01:34:15;;;;;;;6.00;2.90;;;;;;;10.58;71.42;99785.97;1088016;54;20035;-79
2022/11/08 01:35:17;;;;;;;4.55;2.75;;;;;;;10.59;71.42;99776.97;1087990;54;20031;-78
2022/11/08 01:36:23;;;;;;;5.70;2.67;;;;;;;10.58;71.30;99769.09;1087930;54;20134;-80
2022/11/08 01:37:24;;;;;;;5.15;2.95;;;;;;;10.55;71.28;99778.25;1087954;54;20027;-80
2022/11/08 01:38:29;;;;;;;5.15;2.20;;;;;;;10.55;71.19;99778.25;1087891;54;20030;-80
2022/11/08 01:39:31;;;;;;;5.80;2.72;;;;;;;10.58;71.23;99785.97;1088292;39;20220;-80
2022/11/08 01:40:36;;;;;;;6.80;3.17;;;;;;;10.58;71.14;99775.28;1087953;54;20030;-81
2022/11/08 01:41:41;;;;;;;8.13;3.00;;;;;;;10.56;71.58;99781.78;1087995;54;20026;-80
2022/11/08 01:42:43;;;;;;;5.90;2.80;;;;;;;10.53;71.38;99779.41;1088018;54;20038;-80
2022/11/08 01:43:49;;;;;;;6.10;2.75;;;;;;;10.55;71.49;99777.41;1087908;54;20031;-80
2022/11/08 01:45:03;;;;;;;6.35;2.97;;;;;;;10.54;71.62;99781.91;1088015;54;20030;-80
2022/11/08 01:46:37;;;;;;;5.32;2.67;;;;;;;10.48;71.67;99785.19;1087927;54;20027;-81
2022/11/08 01:47:41;;;;;;;4.38;2.60;;;;;;;10.45;71.73;99783.66;1090543;39;20571;-79
2022/11/08 01:48:47;;;;;;;4.88;2.55;;;;;;;10.44;71.85;99783.81;1087804;54;20850;-80
2022/11/08 01:49:54;;;;;;;5.25;3.05;;;;;;;10.40;71.86;99782.44;1088797;39;20276;-80
2022/11/08 01:50:58;;;;;;;5.35;3.10;;;;;;;10.38;71.99;99771.91;1087992;54;20035;-79
2022/11/08 01:52:15;;;;;;;6.32;2.67;;;;;;;10.36;72.41;99765.84;1087942;54;20037;-79
2022/11/08 01:53:19;;;;;;;7.60;3.10;;;;;;;10.30;72.30;99771.75;1087954;54;20041;-80
2022/11/08 01:54:29;;;;;;;6.18;2.97;;;;;;;10.33;72.08;99776.81;1087912;54;20035;-80
2022/11/08 01:55:38;;;;;;;6.57;3.13;;;;;;;10.34;72.18;99772.31;1088087;54;20037;-80
2022/11/08 01:56:41;;;;;;;5.80;2.97;;;;;;;10.32;72.45;99775.13;1087834;54;20030;-80
2022/11/08 01:57:50;;;;;;;5.80;3.38;;;;;;;10.33;72.26;99763.44;1087990;54;20029;-79
2022/11/08 01:58:53;;;;;;;6.90;3.83;;;;;;;10.28;72.38;99763.91;1090021;46;20034;-80
2022/11/08 02:00:04;;;;;;;5.95;3.35;;;;;;;10.27;72.30;99761.38;1089827;39;20198;-81
2022/11/08 02:01:06;;;;;;;6.78;3.22;;;;;;;10.27;72.22;99761.38;1087947;54;20031;-79
2022/11/08 02:02:12;;;;;;;5.13;2.90;;;;;;;10.27;72.21;99759.53;1088981;39;20690;-80
2022/11/08 02:03:20;;;;;;;4.93;3.35;;;;;;;10.21;72.47;99757.47;1089319;46;20026;-80
2022/11/08 02:04:21;;;;;;;8.30;3.50;;;;;;;10.20;72.44;99754.97;1088006;54;20022;-80
2022/11/08 02:05:29;;;;;;;6.05;3.63;;;;;;;10.23;72.45;99757.31;1088051;54;20018;-80
2022/11/08 02:06:34;;;;;;;6.88;3.75;;;;;;;10.21;72.51;99748.63;1087967;54;20094;-81
2022/11/08 02:07:38;;;;;;;6.80;3.45;;;;;;;10.20;72.48;99742.44;1088404;46;20053;-80
2022/11/08 02:08:41;;;;;;;6.90;3.03;;;;;;;10.19;72.63;99747.94;1087914;54;20038;-80
2022/11/08 02:09:48;;;;;;;5.97;3.65;;;;;;;10.21;72.51;99741.47;1087921;54;20053;-80
2022/11/08 02:10:52;;;;;;;7.50;3.60;;;;;;;10.17;72.62;99740.06;1087958;54;20033;-81
2022/11/08 02:11:57;;;;;;;6.10;3.50;;;;;;;10.17;72.63;99739.22;1088007;54;20017;-81
2022/11/08 02:12:59;;;;;;;7.60;3.60;;;;;;;10.13;72.62;99739.53;1087956;54;20034;-81
2022/11/08 02:14:04;;;;;;;8.43;4.00;;;;;;;10.13;72.86;99738.69;1087944;54;20090;-80
2022/11/08 02:15:11;;;;;;;5.80;3.33;;;;;;;10.14;73.11;99732.38;1088171;46;20041;-81
2022/11/08 02:16:16;;;;;;;7.57;4.05;;;;;;;10.10;72.68;99734.50;1087953;54;20037;-80
2022/11/08 02:17:18;;;;;;;9.02;4.05;;;;;;;10.09;73.07;99726.63;1087918;54;20049;-80
2022/11/08 02:18:26;;;;;;;6.85;4.15;;;;;;;10.05;73.25;99734.09;1089374;39;20680;-81
2022/11/08 02:19:37;;;;;;;8.40;4.50;;;;;;;10.02;73.46;99729.03;1087942;54;20031;-81
2022/11/08 02:20:48;;;;;;;6.57;3.67;;;;;;;10.01;73.25;99727.38;1088576;46;20162;-81
2022/11/08 02:21:56;;;;;;;10.52;4.50;;;;;;;9.97;73.59;99721.47;1088002;54;20031;-80
2022/11/08 02:23:11;;;;;;;9.68;5.28;;;;;;;9.96;73.44;99725.16;1088033;54;20038;-80
2022/11/08 02:25:01;;;;;;;;;;;;;;;;;;;;;
2022/11/08 02:26:03;;;;;;;9.35;4.35;;;;;;;9.72;74.06;99714.16;1088040;54;20038;-80
2022/11/08 02:27:10;;;;;;;8.32;4.22;;;;;;;9.67;74.07;99727.94;1087995;54;20033;-81
2022/11/08 02:28:15;;;;;;;7.63;3.97;;;;;;;9.64;74.09;99717.56;1088000;54;20035;-81
2022/11/08 02:29:26;;;;;;;9.02;3.95;;;;;;;9.58;74.58;99718.16;1088503;46;20090;-81
2022/11/08 02:30:34;;;;;;;7.47;3.97;;;;;;;9.63;74.24;99724.72;1089073;46;20057;-81
2022/11/08 02:31:36;;;;;;;7.82;4.65;;;;;;;9.57;74.60;99724.47;1088496;46;20048;-80
2022/11/08 02:32:41;;;;;;;8.52;4.53;;;;;;;9.63;74.12;99721.25;1088076;54;20049;-80
2022/11/08 02:33:44;;;;;;;8.65;4.50;;;;;;;9.57;74.53;99716.47;1088220;46;20054;-80
2022/11/08 02:34:54;;;;;;;8.48;5.00;;;;;;;9.54;74.87;99717.59;1090647;46;20037;-81
2022/11/08 02:35:57;;;;;;;6.70;4.32;;;;;;;9.57;74.52;99719.13;1093903;46;20042;-80
2022/11/08 02:37:05;;;;;;;8.50;4.72;;;;;;;9.57;74.48;99711.97;1088316;54;20011;-80
2022/11/08 02:38:06;;;;;;;11.43;4.68;;;;;;;9.58;74.70;99719.00;1088761;46;20050;-81
2022/11/08 02:39:11;;;;;;;9.75;4.53;;;;;;;9.55;74.70;99723.78;1089277;46;20010;-80
2022/11/08 02:40:18;;;;;;;9.25;4.75;;;;;;;9.55;75.18;99715.75;1089292;46;20093;-80
2022/11/08 02:41:20;;;;;;;10.52;4.97;;;;;;;9.55;75.04;99718.44;1088593;46;20025;-80
2022/11/08 02:42:24;;;;;;;11.43;4.97;;;;;;;9.57;74.84;99713.78;1094780;46;20053;-81
2022/11/08 02:43:29;;;;;;;9.35;4.80;;;;;;;9.53;75.16;99713.25;1089638;46;20014;-80
2022/11/08 02:44:30;;;;;;;10.45;5.18;;;;;;;9.52;74.97;99715.09;1088388;54;20034;-80
2022/11/08 02:45:35;;;;;;;10.13;5.07;;;;;;;9.44;75.01;99717.66;1090278;46;20026;-80
2022/11/08 02:46:36;;;;;;;10.45;5.28;;;;;;;9.41;75.47;99711.75;1091121;39;20680;-81
2022/11/08 02:47:40;;;;;;;17.23;6.60;;;;;;;9.38;75.57;99718.22;1088146;54;20019;-80
2022/11/08 02:48:42;;;;;;;8.65;4.82;;;;;;;9.40;75.62;99716.25;1087975;54;20035;-81
2022/11/08 02:49:46;;;;;;;11.13;5.03;;;;;;;9.35;75.59;99711.34;1088825;39;20733;-81
2022/11/08 23:02:04;;;;;;;9.18;3.72;;;;;;;13.73;59.10;99488.09;1086256;54;20118;-83
2022/11/08 23:03:05;;;;;;;6.20;3.72;;;;;;;13.66;59.16;99489.81;1086781;54;20042;-80
2022/11/08 23:04:11;;;;;;;6.20;3.40;;;;;;;13.71;59.19;99481.22;1088083;46;20015;-82
2022/11/08 23:05:13;;;;;;;6.55;3.42;;;;;;;13.60;59.45;99495.91;1087743;54;20038;-81
2022/11/08 23:06:22;;;;;;;6.68;3.55;;;;;;;13.66;59.39;99491.66;1088391;46;20594;-80
2022/11/08 23:24:21;;;;;;;5.43;3.00;;;;;;;13.78;58.05;99451.78;1087762;54;20038;-81
2022/11/08 23:25:33;;;;;;;6.68;2.95;;;;;;;13.76;58.34;99446.59;1093107;39;20397;-81
2022/11/08 23:31:53;;;;;;;5.13;2.90;;;;;;;13.78;57.78;99452.63;1087127;54;20034;-82
2022/11/08 23:32:57;;;;;;;5.97;3.33;;;;;;;13.80;57.63;99455.97;1087648;54;20037;-80
